Terminal Aerodrome Forecast
Issued by NWS Boston, MA

Home | Current Version | Previous Version | Text Only | Print | Product List | Glossary On
Versions: 1 2 3 4 5 6 7 8 9 10 11 12 13 14 15 16 17 18 19 20 21 22 23 24 25 26 27 28 29 30 31 32 33 34 35 36 37 38 39 40 41 42 43 44 45 46
456
FTUS41 KBOX 072343
TAFBDL
TAF
KBDL 072343Z 0800/0906 VRB03KT P6SM SCT250
     FM080600 03005KT P6SM BKN025
     FM080800 03007KT P6SM OVC015
     FM081000 03008KT P6SM VCSH OVC020
     FM081200 03010G26KT P6SM VCSH OVC020
     FM081500 02010G21KT 1/2SM SN FG OVC015
     FM081800 02010G23KT 1SM -SN BR BKN015
     FM090200 02006KT P6SM VCSH OVC015=

USA.gov is the U.S. government's official web portal to all federal, state and local government web resources and services.